Time;durP1;ratioP1;P1;durP2;ratioP2;P2;SDS_P1;SDS_P2;PMS_P1;PMS_P2;Temp;Humidity;BMP_temperature;BMP_pressure;BME280_temperature;BME280_humidity;BME280_pressure;Samples;Min_cycle;Max_cycle;Signal;HPM_P1;HPM_P2
2023/01/15 00:02:05;;;;;;;17.45;8.05;;;;;;;;;;5025775;28;20144;-71
2023/01/15 00:04:32;;;;;;;13.27;6.80;;;;;;;;;;5017566;28;20763;-68
2023/01/15 00:06:58;;;;;;;14.68;7.15;;;;;;;;;;5006147;28;20052;-71
2023/01/15 00:09:25;;;;;;;16.60;7.97;;;;;;;;;;5025025;28;20409;-69
2023/01/15 00:11:51;;;;;;;19.60;8.40;;;;;;;;;;5025094;28;20517;-67
2023/01/15 00:14:18;;;;;;;17.77;7.20;;;;;;;;;;5025852;28;20041;-67
2023/01/15 00:16:45;;;;;;;13.68;6.90;;;;;;;;;;5023325;28;20048;-67
2023/01/15 00:19:11;;;;;;;14.98;7.22;;;;;;;;;;5024621;28;20060;-67
2023/01/15 00:21:38;;;;;;;19.02;7.93;;;;;;;;;;5024396;28;20041;-69
2023/01/15 00:29:35;;;;;;;26.50;10.20;;;;;;;;;;5024387;28;20036;-69
2023/01/15 00:32:06;;;;;;;23.05;9.48;;;;;;;;;;5019098;28;20036;-66
2023/01/15 00:34:33;;;;;;;22.52;9.35;;;;;;;;;;5007052;28;20041;-67
2023/01/15 00:37:00;;;;;;;19.15;8.95;;;;;;;;;;5026058;28;20597;-68
2023/01/15 00:39:27;;;;;;;18.55;9.10;;;;;;;;;;5024255;28;20033;-69
2023/01/15 00:41:54;;;;;;;18.73;8.60;;;;;;;;;;5024905;28;20083;-67
2023/01/15 00:44:21;;;;;;;18.88;8.80;;;;;;;;;;5024589;28;20043;-68
2023/01/15 00:46:48;;;;;;;15.75;8.23;;;;;;;;;;5006849;28;20057;-68
2023/01/15 00:49:14;;;;;;;20.08;8.48;;;;;;;;;;5023596;28;20053;-69
2023/01/15 00:51:41;;;;;;;21.17;8.35;;;;;;;;;;5021183;28;20052;-67
2023/01/15 00:54:08;;;;;;;17.10;7.70;;;;;;;;;;5027352;28;21870;-68
2023/01/15 00:56:35;;;;;;;16.35;8.38;;;;;;;;;;5022889;28;20121;-66
2023/01/15 00:59:02;;;;;;;17.73;8.38;;;;;;;;;;5024927;28;20798;-68
2023/01/15 01:01:29;;;;;;;14.70;8.57;;;;;;;;;;5024012;28;20038;-69
2023/01/15 01:03:55;;;;;;;15.63;8.30;;;;;;;;;;5020575;28;20041;-68
2023/01/15 01:06:22;;;;;;;16.20;8.05;;;;;;;;;;5019238;28;20049;-68
2023/01/15 01:08:49;;;;;;;18.60;8.32;;;;;;;;;;5025786;28;20128;-69
2023/01/15 01:11:17;;;;;;;19.73;9.15;;;;;;;;;;5029244;28;20114;-68
2023/01/15 01:13:44;;;;;;;23.23;9.75;;;;;;;;;;5025352;28;20520;-70
2023/01/15 01:16:25;;;;;;;27.23;11.93;;;;;;;;;;5023107;28;20076;-70
2023/01/15 01:18:52;;;;;;;27.65;10.95;;;;;;;;;;5007415;28;20046;-69
2023/01/15 01:21:19;;;;;;;24.20;10.07;;;;;;;;;;5025956;28;20037;-68
2023/01/15 01:23:45;;;;;;;25.17;9.27;;;;;;;;;;5024880;28;20057;-68
2023/01/15 01:26:12;;;;;;;19.80;8.75;;;;;;;;;;5023718;28;20678;-68
2023/01/15 01:28:40;;;;;;;19.83;9.23;;;;;;;;;;5026469;28;20180;-69
2023/01/15 01:31:07;;;;;;;18.55;9.48;;;;;;;;;;5027006;28;20041;-72
2023/01/15 01:33:34;;;;;;;19.80;8.45;;;;;;;;;;5024079;28;20056;-67
2023/01/15 01:36:00;;;;;;;20.63;8.45;;;;;;;;;;5025944;28;20086;-68
2023/01/15 01:38:27;;;;;;;20.67;8.93;;;;;;;;;;5024606;28;20103;-69
2023/01/15 01:40:54;;;;;;;19.45;9.40;;;;;;;;;;5025346;28;20044;-67
2023/01/15 01:43:23;;;;;;;23.05;9.18;;;;;;;;;;5025815;28;20084;-69
2023/01/15 01:45:49;;;;;;;29.92;14.05;;;;;;;;;;5029468;28;20092;-70
2023/01/15 01:48:18;;;;;;;25.08;15.23;;;;;;;;;;5011297;28;20588;-69
2023/01/15 01:50:46;;;;;;;19.25;10.50;;;;;;;;;;5025540;28;20099;-70
2023/01/15 01:53:14;;;;;;;25.08;10.25;;;;;;;;;;5027783;28;20176;-69
2023/01/15 01:55:41;;;;;;;24.50;10.52;;;;;;;;;;5028235;28;20160;-69
2023/01/15 01:58:09;;;;;;;20.48;10.60;;;;;;;;;;5028494;28;20340;-70
2023/01/15 02:00:36;;;;;;;22.42;11.00;;;;;;;;;;5028093;28;20033;-69
2023/01/15 02:03:05;;;;;;;21.45;11.05;;;;;;;;;;5029982;28;20497;-70
2023/01/15 02:05:33;;;;;;;22.30;10.90;;;;;;;;;;5029147;28;20037;-70
2023/01/15 02:08:00;;;;;;;21.27;9.75;;;;;;;;;;5029495;28;20087;-69
2023/01/15 02:10:27;;;;;;;28.02;11.63;;;;;;;;;;5010027;28;20560;-71
2023/01/15 02:13:00;;;;;;;27.65;11.52;;;;;;;;;;5030138;28;20476;-69
2023/01/15 02:15:30;;;;;;;16.20;9.15;;;;;;;;;;5027543;28;20099;-69
2023/01/15 02:18:04;;;;;;;28.48;11.98;;;;;;;;;;5012517;28;20509;-70
2023/01/15 02:20:33;;;;;;;23.67;11.68;;;;;;;;;;5022056;28;20069;-68
2023/01/15 02:23:15;;;;;;;17.90;11.20;;;;;;;;;;5028851;28;20041;-71
2023/01/15 02:26:00;;;;;;;23.92;12.05;;;;;;;;;;5026841;28;20048;-68
2023/01/15 02:28:30;;;;;;;26.75;11.13;;;;;;;;;;5010059;28;20045;-68
2023/01/15 02:31:01;;;;;;;22.10;11.15;;;;;;;;;;5029131;28;20033;-68
2023/01/15 02:33:33;;;;;;;22.33;10.43;;;;;;;;;;5027789;28;20044;-73
2023/01/15 02:36:00;;;;;;;20.98;10.98;;;;;;;;;;5020983;28;21803;-69
2023/01/15 02:38:30;;;;;;;25.35;11.30;;;;;;;;;;5026777;28;20556;-69
2023/01/15 02:40:58;;;;;;;25.88;10.27;;;;;;;;;;5027565;28;20132;-69
2023/01/15 02:43:27;;;;;;;28.30;10.80;;;;;;;;;;5028298;28;20049;-69
2023/01/15 02:45:55;;;;;;;26.00;10.50;;;;;;;;;;5022489;28;20045;-68
2023/01/15 02:48:24;;;;;;;17.67;9.57;;;;;;;;;;5007520;28;20075;-69
2023/01/15 02:50:56;;;;;;;22.40;9.77;;;;;;;;;;5026445;28;20039;-69
2023/01/15 02:53:25;;;;;;;24.02;11.27;;;;;;;;;;5027915;28;20171;-69
2023/01/15 02:55:53;;;;;;;22.83;11.20;;;;;;;;;;5027469;28;20049;-69
2023/01/15 02:58:22;;;;;;;22.88;10.75;;;;;;;;;;5026392;28;20124;-69
2023/01/15 03:00:50;;;;;;;21.45;9.98;;;;;;;;;;5015124;28;20124;-69
2023/01/15 03:03:24;;;;;;;18.92;10.15;;;;;;;;;;5029056;28;20045;-72
2023/01/15 03:05:56;;;;;;;23.30;9.88;;;;;;;;;;4968793;28;20046;-70
2023/01/15 03:08:23;;;;;;;21.73;10.32;;;;;;;;;;4974534;28;22089;-69
2023/01/15 03:10:50;;;;;;;19.15;9.55;;;;;;;;;;4976390;28;20049;-69
2023/01/15 03:13:24;;;;;;;27.25;12.18;;;;;;;;;;4958804;28;20389;-69
2023/01/15 03:18:49;;;;;;;22.02;11.05;;;;;;;;;;4973710;28;20179;-70
2023/01/15 03:21:19;;;;;;;17.95;10.00;;;;;;;;;;4951219;28;20444;-69
2023/01/15 03:23:47;;;;;;;17.70;9.02;;;;;;;;;;4971815;28;20077;-68
2023/01/15 03:26:14;;;;;;;20.60;10.68;;;;;;;;;;4973454;28;20090;-70
2023/01/15 03:28:41;;;;;;;20.75;9.77;;;;;;;;;;4973162;28;20046;-68
2023/01/15 03:31:08;;;;;;;22.10;10.05;;;;;;;;;;4971989;28;20049;-69
2023/01/15 03:33:35;;;;;;;24.17;10.75;;;;;;;;;;4973382;28;20560;-70
2023/01/15 03:36:02;;;;;;;21.83;10.13;;;;;;;;;;4979924;28;20484;-68
2023/01/15 03:38:36;;;;;;;22.65;9.93;;;;;;;;;;5024017;28;20051;-68
2023/01/15 03:41:03;;;;;;;20.67;10.85;;;;;;;;;;5017449;28;20045;-67
2023/01/15 03:43:49;;;;;;;26.35;10.15;;;;;;;;;;5025891;28;20044;-67
2023/01/15 03:46:19;;;;;;;14.07;9.00;;;;;;;;;;5020180;28;20050;-69
2023/01/15 03:48:55;;;;;;;22.08;10.48;;;;;;;;;;5024703;28;20037;-70
2023/01/15 03:51:41;;;;;;;22.13;10.65;;;;;;;;;;5025671;28;20053;-69
2023/01/15 03:54:11;;;;;;;23.52;10.65;;;;;;;;;;5025230;28;20053;-69
2023/01/15 03:56:54;;;;;;;18.90;9.80;;;;;;;;;;5025068;28;20716;-68
2023/01/15 03:59:28;;;;;;;18.13;9.40;;;;;;;;;;5024715;28;20108;-68
2023/01/15 04:01:55;;;;;;;21.65;10.57;;;;;;;;;;5018413;28;20053;-68
2023/01/15 04:04:22;;;;;;;16.13;10.30;;;;;;;;;;5023612;28;20060;-69
2023/01/15 04:06:49;;;;;;;21.80;9.68;;;;;;;;;;5023784;28;20041;-68
2023/01/15 04:09:16;;;;;;;18.55;9.02;;;;;;;;;;5025604;28;20050;-69
2023/01/15 04:11:43;;;;;;;21.73;8.57;;;;;;;;;;5024996;28;20123;-68
2023/01/15 04:14:12;;;;;;;14.18;8.00;;;;;;;;;;5026538;28;20916;-68
2023/01/15 04:16:38;;;;;;;15.20;7.82;;;;;;;;;;5023196;28;20049;-67
2023/01/15 04:19:05;;;;;;;13.27;7.32;;;;;;;;;;5025366;28;20041;-67
2023/01/15 04:21:32;;;;;;;13.63;7.30;;;;;;;;;;5025944;28;20079;-67
2023/01/15 04:23:59;;;;;;;13.20;7.05;;;;;;;;;;5023752;28;20064;-69
2023/01/15 04:26:25;;;;;;;13.70;7.07;;;;;;;;;;5024319;28;20084;-68
2023/01/15 04:28:52;;;;;;;15.60;7.30;;;;;;;;;;5024734;28;20034;-68
2023/01/15 04:31:19;;;;;;;18.30;7.47;;;;;;;;;;5025609;28;20044;-68
2023/01/15 04:33:46;;;;;;;12.90;7.20;;;;;;;;;;5023908;28;20576;-68
2023/01/15 04:36:13;;;;;;;17.05;7.30;;;;;;;;;;5026178;28;20762;-68
2023/01/15 04:38:40;;;;;;;14.57;7.93;;;;;;;;;;5024947;28;20091;-69
2023/01/15 04:44:07;;;;;;;13.85;7.80;;;;;;;;;;5025541;28;20083;-67
2023/01/15 04:46:35;;;;;;;16.75;7.63;;;;;;;;;;5024309;28;20059;-67
2023/01/15 04:49:02;;;;;;;14.57;7.45;;;;;;;;;;5029089;28;20041;-68
2023/01/15 04:51:29;;;;;;;13.10;7.60;;;;;;;;;;5027107;28;20051;-69
2023/01/15 04:53:55;;;;;;;11.55;7.15;;;;;;;;;;5033556;28;20041;-68
2023/01/15 04:56:22;;;;;;;16.40;9.98;;;;;;;;;;5033413;28;20037;-68
2023/01/15 04:58:49;;;;;;;19.10;9.93;;;;;;;;;;5033367;28;20057;-67
2023/01/15 05:01:18;;;;;;;21.20;9.55;;;;;;;;;;5031484;28;20033;-68
2023/01/15 05:03:45;;;;;;;18.40;9.13;;;;;;;;;;5028470;28;20068;-68
2023/01/15 05:06:13;;;;;;;24.52;11.77;;;;;;;;;;5026734;28;20045;-68
2023/01/15 05:08:40;;;;;;;25.65;12.13;;;;;;;;;;5024316;28;20041;-69
2023/01/15 05:11:07;;;;;;;26.80;12.20;;;;;;;;;;5025384;28;20095;-69
2023/01/15 05:13:34;;;;;;;23.63;10.88;;;;;;;;;;5025347;28;20040;-68
2023/01/15 05:16:08;;;;;;;24.08;11.90;;;;;;;;;;5025215;28;20130;-66
2023/01/15 05:18:34;;;;;;;26.27;10.98;;;;;;;;;;5024294;28;20567;-67
2023/01/15 05:21:01;;;;;;;25.83;11.07;;;;;;;;;;5028493;28;20405;-68
2023/01/15 05:23:28;;;;;;;19.73;10.30;;;;;;;;;;5025288;28;20076;-69
2023/01/15 05:25:54;;;;;;;17.92;9.43;;;;;;;;;;5028160;28;20404;-68
2023/01/15 05:28:21;;;;;;;15.00;8.75;;;;;;;;;;5025462;28;20045;-68
2023/01/15 05:30:48;;;;;;;20.20;9.30;;;;;;;;;;5027523;28;20164;-68
2023/01/15 05:33:14;;;;;;;16.67;8.95;;;;;;;;;;5028597;28;20678;-68
2023/01/15 05:35:41;;;;;;;17.77;8.77;;;;;;;;;;5026537;28;20062;-67
2023/01/15 05:38:08;;;;;;;19.15;9.32;;;;;;;;;;5028728;28;20405;-68
2023/01/15 05:40:34;;;;;;;16.33;8.70;;;;;;;;;;5028434;28;20037;-68
2023/01/15 05:43:01;;;;;;;21.25;10.05;;;;;;;;;;5028056;28;20076;-68
2023/01/15 05:45:27;;;;;;;21.02;9.73;;;;;;;;;;5009260;28;20076;-69
2023/01/15 05:47:54;;;;;;;17.92;11.05;;;;;;;;;;5009444;28;20140;-68
2023/01/15 05:50:21;;;;;;;20.02;11.43;;;;;;;;;;5027197;28;20494;-68
2023/01/15 05:52:47;;;;;;;22.63;11.43;;;;;;;;;;5027142;28;20057;-68
2023/01/15 05:55:14;;;;;;;21.15;11.60;;;;;;;;;;5027312;28;20038;-69
2023/01/15 05:57:41;;;;;;;24.50;12.35;;;;;;;;;;5026724;28;20052;-69
2023/01/15 06:00:08;;;;;;;26.17;12.10;;;;;;;;;;5027920;28;20074;-68
2023/01/15 06:02:34;;;;;;;23.20;11.85;;;;;;;;;;5027246;28;20037;-68
2023/01/15 06:05:01;;;;;;;17.02;9.68;;;;;;;;;;5027412;28;20037;-68
2023/01/15 06:07:28;;;;;;;18.95;10.30;;;;;;;;;;5024963;28;20063;-68
2023/01/15 06:09:54;;;;;;;16.05;10.30;;;;;;;;;;5026990;28;20807;-68
2023/01/15 06:12:21;;;;;;;20.35;10.70;;;;;;;;;;5026798;28;20045;-68
2023/01/15 06:14:47;;;;;;;23.02;10.52;;;;;;;;;;5026080;28;20041;-69
2023/01/15 06:17:14;;;;;;;20.50;10.18;;;;;;;;;;5026511;28;20042;-69
2023/01/15 06:19:41;;;;;;;25.95;11.75;;;;;;;;;;5026995;28;20041;-69
2023/01/15 06:22:08;;;;;;;18.45;10.07;;;;;;;;;;5009279;28;20049;-69
2023/01/15 06:24:34;;;;;;;15.95;9.25;;;;;;;;;;5027901;28;20045;-67
2023/01/15 06:27:01;;;;;;;14.98;9.18;;;;;;;;;;5027162;28;20052;-69
2023/01/15 06:29:28;;;;;;;16.63;8.98;;;;;;;;;;5025611;28;20029;-69
2023/01/15 06:31:54;;;;;;;18.30;9.40;;;;;;;;;;5027061;28;20039;-68
2023/01/15 06:34:21;;;;;;;16.77;9.60;;;;;;;;;;5024645;28;20064;-68
2023/01/15 06:36:48;;;;;;;18.30;9.60;;;;;;;;;;5027774;28;20049;-69
2023/01/15 06:39:15;;;;;;;18.52;10.20;;;;;;;;;;5028344;28;20935;-69
2023/01/15 06:47:19;;;;;;;19.48;9.77;;;;;;;;;;5027158;28;20145;-70
2023/01/15 06:49:46;;;;;;;22.50;9.63;;;;;;;;;;5025380;28;20115;-69
2023/01/15 06:52:13;;;;;;;17.13;9.57;;;;;;;;;;5026729;28;20158;-69
2023/01/15 06:54:39;;;;;;;18.88;9.10;;;;;;;;;;5019382;28;20056;-70
2023/01/15 06:57:06;;;;;;;20.52;10.52;;;;;;;;;;5007596;28;20075;-69
2023/01/15 06:59:33;;;;;;;19.92;9.68;;;;;;;;;;5006522;28;20042;-69
2023/01/15 07:02:00;;;;;;;21.65;10.25;;;;;;;;;;5027543;28;20041;-69
2023/01/15 07:04:27;;;;;;;16.60;9.48;;;;;;;;;;5025516;28;20033;-69
2023/01/15 07:06:53;;;;;;;16.13;9.32;;;;;;;;;;5026346;28;20069;-69
2023/01/15 07:09:20;;;;;;;18.48;10.50;;;;;;;;;;5026455;28;20048;-69
2023/01/15 07:11:50;;;;;;;18.20;10.15;;;;;;;;;;5026291;28;20044;-69
2023/01/15 07:14:21;;;;;;;19.23;10.02;;;;;;;;;;5028104;28;20045;-71
2023/01/15 07:16:48;;;;;;;19.77;10.32;;;;;;;;;;5025704;28;20094;-71
2023/01/15 07:19:15;;;;;;;20.25;10.65;;;;;;;;;;5024281;28;20104;-72
2023/01/15 07:21:42;;;;;;;17.23;9.77;;;;;;;;;;5024334;28;20049;-71
2023/01/15 07:24:09;;;;;;;22.77;10.65;;;;;;;;;;5026820;28;20081;-71
2023/01/15 07:26:36;;;;;;;17.20;10.00;;;;;;;;;;5025843;28;20044;-70
2023/01/15 07:29:03;;;;;;;21.13;10.63;;;;;;;;;;5025761;28;20576;-70
2023/01/15 07:31:29;;;;;;;16.75;9.52;;;;;;;;;;5024293;28;20087;-70
2023/01/15 07:33:57;;;;;;;18.05;10.27;;;;;;;;;;5025678;28;20040;-69
2023/01/15 07:36:23;;;;;;;18.80;9.73;;;;;;;;;;5026332;28;20132;-70
2023/01/15 07:38:50;;;;;;;18.90;9.93;;;;;;;;;;5017768;28;20047;-71
2023/01/15 07:49:50;;;;;;;22.38;9.95;;;;;;;;;;5028693;28;20032;-69
2023/01/15 07:52:18;;;;;;;20.83;10.05;;;;;;;;;;5022320;28;20065;-70
2023/01/15 07:54:45;;;;;;;19.88;10.35;;;;;;;;;;5025429;28;20091;-70
2023/01/15 07:57:13;;;;;;;23.25;11.57;;;;;;;;;;5028069;28;20064;-69
2023/01/15 07:59:40;;;;;;;18.10;10.23;;;;;;;;;;5011811;28;20065;-69
2023/01/15 08:02:06;;;;;;;21.60;11.18;;;;;;;;;;5028600;28;20587;-68
2023/01/15 08:04:33;;;;;;;21.55;11.02;;;;;;;;;;5030006;28;20052;-69
2023/01/15 08:07:01;;;;;;;17.90;10.30;;;;;;;;;;5028674;28;20086;-70
2023/01/15 08:09:28;;;;;;;20.58;10.43;;;;;;;;;;5029313;28;20041;-69
2023/01/15 08:17:25;;;;;;;18.17;10.15;;;;;;;;;;5026878;28;20041;-70
2023/01/15 08:19:52;;;;;;;19.48;10.52;;;;;;;;;;5027397;28;20116;-69
2023/01/15 08:22:19;;;;;;;20.95;9.77;;;;;;;;;;5024686;28;20029;-69
2023/01/15 08:24:46;;;;;;;17.63;9.80;;;;;;;;;;5029174;28;20061;-69
2023/01/15 08:27:12;;;;;;;19.23;9.95;;;;;;;;;;5027747;28;20044;-69
2023/01/15 08:29:59;;;;;;;15.48;9.82;;;;;;;;;;5003744;28;20041;-70
2023/01/15 08:32:25;;;;;;;19.98;11.48;;;;;;;;;;5003557;28;20102;-69
2023/01/15 08:34:52;;;;;;;17.23;10.20;;;;;;;;;;5003589;28;20041;-68
2023/01/15 08:37:19;;;;;;;20.15;9.70;;;;;;;;;;5002931;28;20534;-69
2023/01/15 08:40:06;;;;;;;19.05;10.77;;;;;;;;;;4991524;28;20189;-68
2023/01/15 08:42:33;;;;;;;24.45;10.55;;;;;;;;;;4990042;28;20121;-69
2023/01/15 08:44:59;;;;;;;20.30;10.32;;;;;;;;;;4990589;28;20037;-68
2023/01/15 08:47:26;;;;;;;21.30;10.02;;;;;;;;;;4993068;28;20042;-67
2023/01/15 08:49:56;;;;;;;19.13;10.35;;;;;;;;;;5001004;28;20050;-70
2023/01/15 08:52:22;;;;;;;21.40;10.63;;;;;;;;;;5008199;28;20054;-70
2023/01/15 08:54:49;;;;;;;18.38;10.45;;;;;;;;;;5016499;28;20030;-70
2023/01/15 08:57:15;;;;;;;16.70;9.95;;;;;;;;;;5004274;28;20821;-69
2023/01/15 08:59:42;;;;;;;17.60;10.07;;;;;;;;;;4995749;28;20034;-69
2023/01/15 09:02:14;;;;;;;16.55;9.13;;;;;;;;;;4996274;28;20419;-68
2023/01/15 09:04:40;;;;;;;20.05;9.85;;;;;;;;;;4994811;28;20061;-69
2023/01/15 09:07:07;;;;;;;19.42;10.48;;;;;;;;;;5003159;28;20048;-69
2023/01/15 09:09:34;;;;;;;20.58;9.90;;;;;;;;;;5020334;28;20080;-71
2023/01/15 09:12:01;;;;;;;14.30;9.20;;;;;;;;;;5021480;28;20033;-70
2023/01/15 09:14:28;;;;;;;19.92;9.77;;;;;;;;;;5022225;28;20113;-69
2023/01/15 09:16:54;;;;;;;17.55;9.32;;;;;;;;;;4996891;28;20042;-69
2023/01/15 09:19:21;;;;;;;19.98;9.50;;;;;;;;;;5018739;28;20033;-69
2023/01/15 09:21:48;;;;;;;18.08;10.23;;;;;;;;;;5029097;28;20045;-69
2023/01/15 09:24:14;;;;;;;18.42;9.32;;;;;;;;;;5029070;28;20119;-68
2023/01/15 09:26:41;;;;;;;22.88;10.27;;;;;;;;;;5027117;28;20041;-69
2023/01/15 09:29:08;;;;;;;17.77;9.88;;;;;;;;;;5031105;28;21321;-70
2023/01/15 09:31:34;;;;;;;17.75;10.43;;;;;;;;;;5030233;28;20655;-69
2023/01/15 09:34:01;;;;;;;16.42;8.45;;;;;;;;;;5030220;28;20038;-71
2023/01/15 09:36:29;;;;;;;16.95;9.85;;;;;;;;;;5028254;28;20076;-70
2023/01/15 09:38:56;;;;;;;22.95;9.68;;;;;;;;;;5029740;28;20030;-69
2023/01/15 09:44:15;;;;;;;21.83;10.23;;;;;;;;;;5029639;28;20167;-69
2023/01/15 09:46:47;;;;;;;20.17;10.18;;;;;;;;;;5005311;28;20376;-69
2023/01/15 09:49:33;;;;;;;21.73;10.88;;;;;;;;;;5023574;28;20049;-69
2023/01/15 09:52:13;;;;;;;17.15;9.80;;;;;;;;;;5028254;28;20148;-69
2023/01/15 09:54:40;;;;;;;23.08;10.70;;;;;;;;;;5029153;28;20056;-68
2023/01/15 09:57:16;;;;;;;20.27;10.90;;;;;;;;;;5026915;28;21718;-68
2023/01/15 09:59:47;;;;;;;17.50;9.63;;;;;;;;;;5027940;28;20106;-68
2023/01/15 10:02:34;;;;;;;21.90;10.52;;;;;;;;;;5028031;28;20127;-68
2023/01/15 10:05:21;;;;;;;23.13;10.73;;;;;;;;;;4986499;28;20041;-70
2023/01/15 10:07:54;;;;;;;21.13;10.88;;;;;;;;;;5025714;28;20045;-69
2023/01/15 10:10:22;;;;;;;18.17;11.02;;;;;;;;;;5024596;28;20044;-69
2023/01/15 10:12:50;;;;;;;19.45;10.60;;;;;;;;;;5021858;28;20415;-69
2023/01/15 10:15:27;;;;;;;20.27;10.40;;;;;;;;;;5029202;28;20394;-69
2023/01/15 10:17:56;;;;;;;22.90;10.57;;;;;;;;;;5026352;28;20139;-69
2023/01/15 10:20:23;;;;;;;22.00;11.18;;;;;;;;;;5027404;28;20596;-70
2023/01/15 10:23:07;;;;;;;20.70;10.63;;;;;;;;;;5028112;28;21691;-70
2023/01/15 10:25:39;;;;;;;19.77;11.05;;;;;;;;;;5020568;28;20029;-70
2023/01/15 10:28:11;;;;;;;19.90;10.40;;;;;;;;;;5025537;28;20147;-69
2023/01/15 10:30:41;;;;;;;22.00;10.23;;;;;;;;;;5009868;28;20044;-69
2023/01/15 10:33:23;;;;;;;16.98;10.20;;;;;;;;;;5028490;28;21580;-70
2023/01/15 10:35:49;;;;;;;18.55;9.63;;;;;;;;;;5027714;28;20454;-69
2023/01/15 10:38:16;;;;;;;19.15;10.50;;;;;;;;;;5020818;28;20076;-70
2023/01/15 10:40:43;;;;;;;20.25;9.93;;;;;;;;;;5027374;28;20047;-69
2023/01/15 10:43:20;;;;;;;17.17;9.63;;;;;;;;;;5028256;28;20904;-69
2023/01/15 10:45:57;;;;;;;18.02;10.48;;;;;;;;;;5010898;28;20045;-69
2023/01/15 10:48:29;;;;;;;18.98;9.95;;;;;;;;;;5027236;28;20060;-68
2023/01/15 10:50:57;;;;;;;22.42;10.82;;;;;;;;;;5027697;28;20068;-69
2023/01/15 10:53:29;;;;;;;19.50;10.45;;;;;;;;;;5028154;28;20072;-69
2023/01/15 10:56:13;;;;;;;18.93;10.40;;;;;;;;;;5027759;28;20052;-69
2023/01/15 10:58:44;;;;;;;17.67;9.60;;;;;;;;;;5027193;28;20324;-69
2023/01/15 11:01:13;;;;;;;19.13;9.75;;;;;;;;;;5028367;28;20970;-69
2023/01/15 11:03:42;;;;;;;18.52;10.27;;;;;;;;;;5027780;28;20046;-68
2023/01/15 11:06:14;;;;;;;21.42;9.50;;;;;;;;;;5025706;28;20048;-70
2023/01/15 11:08:43;;;;;;;16.50;9.27;;;;;;;;;;5009563;28;20040;-68
2023/01/15 11:20:02;;;;;;;18.58;8.85;;;;;;;;;;4984456;28;20088;-69
2023/01/15 11:22:29;;;;;;;17.70;9.75;;;;;;;;;;4982171;28;20356;-68
2023/01/15 11:25:00;;;;;;;16.92;10.07;;;;;;;;;;4982507;28;20042;-68
2023/01/15 11:27:28;;;;;;;19.25;9.27;;;;;;;;;;4962640;28;20545;-69
2023/01/15 11:29:59;;;;;;;17.15;9.05;;;;;;;;;;4986548;28;20057;-69
2023/01/15 11:32:31;;;;;;;16.92;9.60;;;;;;;;;;4970002;28;20109;-68
2023/01/15 11:34:59;;;;;;;18.30;9.95;;;;;;;;;;4985868;28;20046;-70
2023/01/15 11:37:26;;;;;;;17.05;9.18;;;;;;;;;;4983564;28;20034;-70
2023/01/15 11:39:54;;;;;;;18.45;9.82;;;;;;;;;;4985394;28;20518;-69
2023/01/15 11:50:50;;;;;;;15.95;8.50;;;;;;;;;;5025217;28;20048;-70
2023/01/15 11:53:20;;;;;;;19.40;8.77;;;;;;;;;;5027008;28;20570;-69
2023/01/15 11:56:12;;;;;;;17.77;9.93;;;;;;;;;;5026314;28;20046;-70
2023/01/15 11:58:41;;;;;;;16.20;9.05;;;;;;;;;;5021087;28;20039;-69
2023/01/15 12:01:08;;;;;;;18.00;8.77;;;;;;;;;;5002677;28;20036;-69
2023/01/15 12:03:35;;;;;;;15.25;9.10;;;;;;;;;;5024663;28;20041;-69
2023/01/15 12:06:04;;;;;;;14.60;9.00;;;;;;;;;;5006697;28;20033;-69
2023/01/15 12:08:48;;;;;;;20.95;9.95;;;;;;;;;;5024498;28;20076;-69
2023/01/15 12:11:31;;;;;;;15.75;9.77;;;;;;;;;;5026425;28;20045;-69
2023/01/15 12:13:58;;;;;;;18.75;9.60;;;;;;;;;;5025895;28;20585;-69
2023/01/15 12:16:34;;;;;;;18.63;9.45;;;;;;;;;;5002588;28;20514;-69
2023/01/15 12:19:11;;;;;;;17.70;9.77;;;;;;;;;;5026943;28;20041;-69
2023/01/15 12:21:38;;;;;;;17.20;9.65;;;;;;;;;;5025050;28;20422;-69
2023/01/15 12:24:13;;;;;;;18.17;9.48;;;;;;;;;;5024939;28;20040;-69
2023/01/15 12:27:00;;;;;;;18.15;9.57;;;;;;;;;;5001939;28;20048;-70
2023/01/15 12:29:34;;;;;;;16.35;9.38;;;;;;;;;;5024773;28;20557;-70
2023/01/15 12:32:14;;;;;;;18.95;10.25;;;;;;;;;;5026016;28;20037;-69
2023/01/15 12:34:54;;;;;;;15.73;10.38;;;;;;;;;;5028143;28;20036;-69
2023/01/15 12:37:27;;;;;;;17.40;10.45;;;;;;;;;;5025447;28;20077;-69
2023/01/15 12:39:59;;;;;;;19.38;10.05;;;;;;;;;;5027622;28;20120;-69
2023/01/15 12:45:16;;;;;;;14.90;9.43;;;;;;;;;;5026763;28;20121;-70
2023/01/15 12:47:59;;;;;;;17.77;10.27;;;;;;;;;;5025989;28;20502;-71
2023/01/15 12:50:43;;;;;;;15.88;10.00;;;;;;;;;;5027645;28;20107;-69
2023/01/15 12:53:13;;;;;;;15.68;9.45;;;;;;;;;;5022840;28;20087;-70
2023/01/15 12:55:43;;;;;;;16.67;8.80;;;;;;;;;;5024281;28;20047;-70
2023/01/15 12:58:20;;;;;;;19.20;10.48;;;;;;;;;;5027546;28;20522;-70
2023/01/15 13:00:48;;;;;;;18.60;10.43;;;;;;;;;;5007876;28;20159;-70
2023/01/15 13:03:15;;;;;;;17.98;10.70;;;;;;;;;;5026008;28;20067;-70
2023/01/15 13:05:47;;;;;;;19.42;10.57;;;;;;;;;;5025600;28;20037;-70
2023/01/15 13:08:23;;;;;;;20.20;10.27;;;;;;;;;;5026771;28;20064;-71
2023/01/15 13:10:51;;;;;;;19.33;10.63;;;;;;;;;;5026249;28;20042;-71
2023/01/15 13:13:23;;;;;;;17.27;10.35;;;;;;;;;;5026402;28;20064;-72
2023/01/15 13:15:49;;;;;;;20.42;11.38;;;;;;;;;;5027914;28;21056;-70
2023/01/15 13:18:22;;;;;;;19.83;10.98;;;;;;;;;;5009454;28;20050;-71
2023/01/15 13:20:50;;;;;;;23.20;12.05;;;;;;;;;;5025379;28;20033;-71
2023/01/15 13:23:23;;;;;;;24.27;11.73;;;;;;;;;;5025713;28;20050;-70
2023/01/15 13:26:07;;;;;;;17.25;9.05;;;;;;;;;;5025239;28;20119;-70
2023/01/15 13:28:40;;;;;;;17.52;10.63;;;;;;;;;;5024734;28;20041;-70
2023/01/15 13:31:07;;;;;;;20.40;11.63;;;;;;;;;;5025489;28;20033;-71
2023/01/15 13:33:37;;;;;;;19.08;11.23;;;;;;;;;;5016931;28;20509;-70
2023/01/15 13:36:30;;;;;;;23.90;11.80;;;;;;;;;;4957757;28;20107;-69
2023/01/15 13:38:58;;;;;;;20.90;11.82;;;;;;;;;;4959273;28;20042;-70
2023/01/15 13:44:18;;;;;;;20.95;11.65;;;;;;;;;;4962170;28;20238;-69
2023/01/15 13:46:46;;;;;;;21.98;12.13;;;;;;;;;;4962306;28;20043;-70
2023/01/15 13:49:23;;;;;;;22.50;11.63;;;;;;;;;;4963225;28;20111;-70
2023/01/15 13:51:50;;;;;;;19.90;11.82;;;;;;;;;;4964422;28;20047;-70
2023/01/15 13:54:18;;;;;;;20.55;11.98;;;;;;;;;;4957803;28;20049;-70
2023/01/15 13:56:45;;;;;;;17.63;11.40;;;;;;;;;;4968454;28;20093;-71
2023/01/15 13:59:30;;;;;;;23.20;11.98;;;;;;;;;;4973710;28;20146;-71
2023/01/15 14:01:56;;;;;;;21.45;12.05;;;;;;;;;;4986453;28;20061;-70
2023/01/15 14:04:33;;;;;;;23.70;11.55;;;;;;;;;;4983932;28;20316;-71
2023/01/15 14:07:00;;;;;;;20.85;11.55;;;;;;;;;;4998650;28;20047;-70
2023/01/15 14:09:33;;;;;;;22.40;11.98;;;;;;;;;;5031130;28;20537;-71
2023/01/15 14:12:09;;;;;;;18.92;10.90;;;;;;;;;;5011626;28;20442;-71
2023/01/15 14:14:44;;;;;;;24.30;12.85;;;;;;;;;;5026564;28;20056;-69
2023/01/15 14:17:18;;;;;;;19.92;12.70;;;;;;;;;;5029288;28;20047;-71
2023/01/15 14:19:44;;;;;;;;;;;;;;;;;;5029358;28;20033;-72
2023/01/15 14:22:23;;;;;;;19.20;12.43;;;;;;;;;;5029591;28;20353;-70
2023/01/15 14:24:52;;;;;;;22.23;11.93;;;;;;;;;;5029377;28;20774;-70
2023/01/15 14:27:28;;;;;;;17.73;12.18;;;;;;;;;;5027822;28;20042;-70
2023/01/15 14:29:58;;;;;;;20.67;11.38;;;;;;;;;;5028530;28;20137;-69
2023/01/15 14:32:35;;;;;;;20.83;13.43;;;;;;;;;;5027508;28;20048;-70
2023/01/15 14:35:02;;;;;;;21.60;12.15;;;;;;;;;;5030435;28;20044;-71
2023/01/15 14:37:58;;;;;;;22.63;13.13;;;;;;;;;;5029388;28;20044;-68
2023/01/15 14:40:33;;;;;;;20.80;13.18;;;;;;;;;;5004027;28;20043;-65
2023/01/15 14:43:03;;;;;;;25.60;13.75;;;;;;;;;;5026892;28;20044;-71
2023/01/15 14:45:38;;;;;;;27.90;13.50;;;;;;;;;;5027415;28;20041;-70
2023/01/15 14:48:06;;;;;;;22.13;12.93;;;;;;;;;;5010461;28;20038;-69
2023/01/15 14:50:37;;;;;;;24.92;13.30;;;;;;;;;;5027140;28;20132;-68
2023/01/15 14:53:13;;;;;;;27.35;13.93;;;;;;;;;;4990896;28;20093;-68
2023/01/15 14:55:39;;;;;;;25.15;14.05;;;;;;;;;;4983294;28;20358;-67
2023/01/15 14:58:10;;;;;;;28.40;13.15;;;;;;;;;;5001986;28;20132;-71
2023/01/15 15:00:38;;;;;;;20.42;12.55;;;;;;;;;;4998181;28;20039;-68
2023/01/15 15:03:17;;;;;;;25.13;13.35;;;;;;;;;;4999151;28;20038;-68
2023/01/15 15:05:45;;;;;;;21.30;12.65;;;;;;;;;;4999023;28;20317;-71
2023/01/15 15:08:15;;;;;;;22.92;13.57;;;;;;;;;;5002137;28;20053;-68
2023/01/15 15:10:46;;;;;;;21.83;12.80;;;;;;;;;;4994196;28;20108;-68
2023/01/15 15:13:21;;;;;;;19.42;12.05;;;;;;;;;;4975709;28;20042;-69
2023/01/15 15:15:52;;;;;;;20.45;12.60;;;;;;;;;;4996802;28;20125;-68
2023/01/15 15:18:29;;;;;;;26.95;14.75;;;;;;;;;;4987095;28;20069;-68
2023/01/15 15:20:58;;;;;;;21.70;13.15;;;;;;;;;;4993983;28;20038;-67
2023/01/15 15:23:37;;;;;;;26.70;14.23;;;;;;;;;;4995399;28;20356;-68
2023/01/15 15:26:06;;;;;;;28.80;14.38;;;;;;;;;;4993556;28;20080;-69
2023/01/15 15:28:33;;;;;;;23.48;14.88;;;;;;;;;;4978760;28;20322;-70
2023/01/15 15:31:00;;;;;;;25.38;15.95;;;;;;;;;;4996867;28;20853;-69
2023/01/15 15:33:29;;;;;;;27.05;16.33;;;;;;;;;;4994701;28;20413;-69
2023/01/15 15:35:57;;;;;;;33.15;17.08;;;;;;;;;;4995940;28;20045;-69